createdAt,value
2018-12-10T00:00:59.200Z,68.20
2018-12-10T00:03:34.006Z,68.50
2018-12-10T00:06:03.057Z,68.20
2018-12-10T00:08:32.118Z,68.10
2018-12-10T00:11:01.134Z,68.90
2018-12-10T00:13:30.888Z,68.20
2018-12-10T00:16:00.234Z,68.60
2018-12-10T00:18:29.600Z,68.80
2018-12-10T00:20:58.641Z,68.70
2018-12-10T00:23:28.032Z,68.90
2018-12-10T00:25:57.046Z,68.80
2018-12-10T00:28:26.400Z,68.80
2018-12-10T00:30:55.483Z,69.40
2018-12-10T00:33:24.499Z,68.10
2018-12-10T00:35:53.805Z,68.10
2018-12-10T00:38:22.832Z,68.00
2018-12-10T00:40:51.895Z,68.10
2018-12-10T00:43:20.915Z,68.10
2018-12-10T00:45:50.374Z,68.10
2018-12-10T00:48:19.444Z,67.10
2018-12-10T00:50:48.516Z,67.20
2018-12-10T00:53:17.865Z,67.10
2018-12-10T00:55:46.904Z,67.00
2018-12-10T00:58:15.919Z,66.10
2018-12-10T01:00:44.973Z,66.10
2018-12-10T01:03:14.019Z,66.20
2018-12-10T01:05:43.095Z,66.00
2018-12-10T01:08:12.096Z,65.30
2018-12-10T01:10:41.107Z,65.20
2018-12-10T01:13:10.148Z,64.60
2018-12-10T01:15:39.186Z,64.90
2018-12-10T01:18:08.275Z,64.80
2018-12-10T01:20:37.325Z,64.10
2018-12-10T01:23:06.385Z,64.90
2018-12-10T01:25:35.776Z,65.40
2018-12-10T01:28:04.914Z,64.80
2018-12-10T01:30:33.930Z,65.20
2018-12-10T01:33:03.276Z,65.80
2018-12-10T01:35:32.479Z,65.90
2018-12-10T01:38:01.921Z,66.40
2018-12-10T01:40:30.992Z,66.50
2018-12-10T01:43:00.031Z,67.70
2018-12-10T01:45:29.386Z,67.70
2018-12-10T01:47:58.427Z,67.70
2018-12-10T01:50:27.453Z,67.70
2018-12-10T01:52:56.505Z,67.70
2018-12-10T01:55:25.555Z,67.70
2018-12-10T01:57:55.031Z,68.30
2018-12-10T02:00:24.073Z,68.30
2018-12-10T02:02:53.107Z,69.70
2018-12-10T02:05:22.155Z,69.20
2018-12-10T02:07:51.167Z,69.40
2018-12-10T02:10:20.518Z,69.40
2018-12-10T02:12:49.613Z,68.90
2018-12-10T02:15:18.922Z,69.00
2018-12-10T02:17:48.279Z,69.20
2018-12-10T02:20:17.338Z,69.10
2018-12-10T02:22:46.679Z,69.30
2018-12-10T02:25:16.164Z,69.20
2018-12-10T02:27:45.208Z,69.00
2018-12-10T02:30:14.247Z,69.30
2018-12-10T02:32:43.263Z,69.70
2018-12-10T02:35:12.291Z,69.50
2018-12-10T02:37:41.733Z,69.90
2018-12-10T02:40:10.795Z,70.20
2018-12-10T02:42:39.808Z,70.10
2018-12-10T02:45:08.823Z,70.00
2018-12-10T02:47:37.875Z,70.00
2018-12-10T02:50:06.896Z,70.20
2018-12-10T02:52:35.944Z,70.20
2018-12-10T02:55:05.555Z,70.70
2018-12-10T02:57:34.593Z,70.30
2018-12-10T03:00:04.562Z,70.70
2018-12-10T03:02:33.615Z,70.50
2018-12-10T03:05:02.668Z,70.80
2018-12-10T03:07:31.724Z,70.30
2018-12-10T03:10:01.036Z,69.90
2018-12-10T03:12:30.104Z,70.00
2018-12-10T03:14:59.115Z,69.90
2018-12-10T03:17:28.274Z,69.90
2018-12-10T03:19:57.295Z,69.40
2018-12-10T03:22:26.355Z,68.10
2018-12-10T03:24:55.707Z,67.60
2018-12-10T03:27:24.736Z,67.60
2018-12-10T03:29:53.743Z,67.90
2018-12-10T03:32:22.797Z,67.60
2018-12-10T03:34:51.837Z,67.70
2018-12-10T03:37:20.847Z,67.60
2018-12-10T03:39:49.939Z,67.80
2018-12-10T03:42:18.987Z,68.20
2018-12-10T03:44:47.998Z,68.00
2018-12-10T03:47:17.054Z,67.60
2018-12-10T03:49:46.440Z,67.50
2018-12-10T03:52:15.567Z,67.50
2018-12-10T03:54:44.609Z,66.50
2018-12-10T03:57:13.671Z,67.50
2018-12-10T03:59:42.712Z,67.40
2018-12-10T04:02:12.098Z,67.20
2018-12-10T04:04:41.145Z,67.40
2018-12-10T04:07:10.374Z,66.60
2018-12-10T04:09:39.415Z,66.50
2018-12-10T04:12:08.467Z,66.40
2018-12-10T04:14:37.488Z,65.90
2018-12-10T04:17:06.876Z,66.10
2018-12-10T04:19:35.886Z,66.20
2018-12-10T04:22:04.939Z,66.20
2018-12-10T04:24:33.951Z,66.10
2018-12-10T04:27:03.001Z,65.90
2018-12-10T04:29:32.463Z,65.80
2018-12-10T04:32:01.479Z,65.80
2018-12-10T04:34:30.846Z,65.50
2018-12-10T04:37:00.183Z,65.70
2018-12-10T04:39:29.301Z,64.90
2018-12-10T04:41:58.712Z,65.30
2018-12-10T04:44:28.063Z,65.90
2018-12-10T04:46:57.083Z,66.00
2018-12-10T04:49:26.145Z,65.70
2018-12-10T04:51:55.211Z,65.50
2018-12-10T04:54:24.260Z,65.50
2018-12-10T04:56:54.046Z,65.20
2018-12-10T04:59:23.366Z,65.30
2018-12-10T05:01:52.490Z,65.70
2018-12-10T05:04:22.338Z,65.70
2018-12-10T05:06:51.354Z,65.20
2018-12-10T05:09:20.398Z,66.10
2018-12-10T05:11:49.555Z,65.70
2018-12-10T05:14:18.918Z,65.70
2018-12-10T05:16:47.933Z,65.80
2018-12-10T05:19:17.006Z,65.90
2018-12-10T05:21:46.047Z,65.50
2018-12-10T05:24:15.066Z,65.40
2018-12-10T05:26:44.099Z,65.00
2018-12-10T05:29:13.521Z,64.90
2018-12-10T05:31:42.575Z,64.90
2018-12-10T05:34:12.714Z,65.10
2018-12-10T05:36:42.119Z,64.20
2018-12-10T05:39:11.439Z,64.40
2018-12-10T05:41:40.499Z,63.90
2018-12-10T05:44:09.844Z,64.20
2018-12-10T05:46:39.010Z,63.30
2018-12-10T05:49:08.042Z,62.80
2018-12-10T05:51:37.095Z,63.60
2018-12-10T05:54:06.203Z,63.20
2018-12-10T05:56:35.513Z,63.80
2018-12-10T05:59:04.543Z,63.00
2018-12-10T06:01:33.901Z,63.80
2018-12-10T06:04:02.936Z,63.40
2018-12-10T06:06:32.292Z,63.20
2018-12-10T06:09:01.679Z,62.80
2018-12-10T06:11:31.016Z,63.30
2018-12-10T06:14:00.337Z,63.50
2018-12-10T06:16:30.132Z,63.40
2018-12-10T06:18:59.150Z,63.60
2018-12-10T06:21:28.495Z,63.60
2018-12-10T06:23:57.903Z,64.00
2018-12-10T06:26:27.227Z,63.20
2018-12-10T06:28:56.596Z,62.90
2018-12-10T06:31:25.906Z,63.60
2018-12-10T06:33:55.248Z,62.60
2018-12-10T06:36:24.259Z,63.10
2018-12-10T06:38:53.657Z,63.40
2018-12-10T06:41:22.665Z,63.10
2018-12-10T06:43:51.740Z,63.10
2018-12-10T06:46:20.801Z,63.50
2018-12-10T06:48:50.125Z,63.60
2018-12-10T06:51:19.179Z,64.20
2018-12-10T06:53:48.230Z,64.10
2018-12-10T06:56:17.259Z,64.40
2018-12-10T06:58:46.294Z,64.60
2018-12-10T07:01:15.431Z,65.00
2018-12-10T07:03:46.409Z,65.20
2018-12-10T07:06:15.436Z,65.60
2018-12-10T07:08:44.751Z,66.30
2018-12-10T07:11:13.860Z,66.10
2018-12-10T07:13:42.887Z,66.70
2018-12-10T07:16:11.918Z,66.10
2018-12-10T07:18:41.248Z,66.10
2018-12-10T07:21:10.567Z,66.10
2018-12-10T07:23:39.622Z,65.90
2018-12-10T07:26:08.626Z,65.70
2018-12-10T07:28:38.044Z,65.40
2018-12-10T07:31:07.171Z,65.40
2018-12-10T07:33:36.227Z,65.90
2018-12-10T07:36:05.392Z,66.00
2018-12-10T07:38:34.451Z,66.20
2018-12-10T07:41:04.170Z,67.10
2018-12-10T07:43:33.279Z,67.10
2018-12-10T07:46:02.524Z,67.10
2018-12-10T07:48:31.575Z,67.10
2018-12-10T07:51:00.935Z,66.70
2018-12-10T07:53:30.100Z,66.10
2018-12-10T07:55:59.110Z,65.80
2018-12-10T07:58:28.155Z,65.70
2018-12-10T08:00:57.252Z,65.50
2018-12-10T08:03:26.292Z,65.50
2018-12-10T08:05:55.307Z,65.40
2018-12-10T08:08:24.359Z,65.00
2018-12-10T08:10:53.396Z,64.80
2018-12-10T08:13:22.439Z,64.90
2018-12-10T08:15:51.492Z,64.70
2018-12-10T08:18:20.838Z,65.00
2018-12-10T08:20:49.863Z,65.20
2018-12-10T08:23:18.945Z,65.30
2018-12-10T08:25:48.289Z,64.30
2018-12-10T08:28:17.319Z,63.70
2018-12-10T08:30:46.345Z,63.20
2018-12-10T08:33:15.396Z,63.80
2018-12-10T08:35:44.558Z,63.60
2018-12-10T08:38:13.599Z,64.10
2018-12-10T08:40:42.610Z,62.80
2018-12-10T08:43:11.942Z,63.30
2018-12-10T08:45:40.992Z,63.20
2018-12-10T08:48:10.061Z,62.70
2018-12-10T08:50:39.810Z,63.50
2018-12-10T08:53:08.828Z,62.40
2018-12-10T08:55:37.899Z,62.40
2018-12-10T08:58:06.914Z,62.60
2018-12-10T09:00:35.980Z,63.10
2018-12-10T09:03:04.998Z,63.60
2018-12-10T09:05:34.060Z,62.80
2018-12-10T09:08:03.403Z,62.50
2018-12-10T09:10:34.687Z,61.70
2018-12-10T09:13:03.992Z,61.00
2018-12-10T09:15:33.356Z,60.10
2018-12-10T09:18:02.685Z,60.90
2018-12-10T09:20:31.704Z,60.90
2018-12-10T09:23:00.768Z,60.90
2018-12-10T09:25:29.783Z,61.00
2018-12-10T09:27:59.166Z,60.00
2018-12-10T09:30:28.495Z,59.70
2018-12-10T09:32:57.539Z,60.40
2018-12-10T09:35:26.588Z,59.90
2018-12-10T09:37:55.603Z,61.00
2018-12-10T09:40:24.665Z,60.10
2018-12-10T09:42:53.675Z,60.00
2018-12-10T09:45:22.750Z,59.80
2018-12-10T09:47:51.773Z,59.50
2018-12-10T09:50:20.827Z,60.10
2018-12-10T09:52:49.875Z,59.60
2018-12-10T09:55:18.918Z,59.30
2018-12-10T09:57:47.945Z,59.10
2018-12-10T10:00:16.991Z,58.10
2018-12-10T10:02:46.016Z,58.00
2018-12-10T10:05:15.091Z,58.00
2018-12-10T10:07:44.141Z,58.00
2018-12-10T10:10:13.160Z,57.50
2018-12-10T10:12:42.208Z,57.50
2018-12-10T10:15:11.569Z,58.00
2018-12-10T10:17:40.578Z,58.00
2018-12-10T10:20:09.654Z,58.10
2018-12-10T10:22:38.708Z,57.70
2018-12-10T10:25:07.789Z,57.80
2018-12-10T10:27:36.840Z,57.00
2018-12-10T10:30:05.873Z,57.50
2018-12-10T10:32:34.921Z,57.30
2018-12-10T10:35:04.093Z,57.00
2018-12-10T10:37:33.460Z,57.20
2018-12-10T10:40:04.527Z,57.60
2018-12-10T10:42:33.970Z,58.10
2018-12-10T10:45:03.457Z,57.00
2018-12-10T10:47:32.811Z,56.50
2018-12-10T10:50:01.832Z,56.80
2018-12-10T10:52:33.220Z,56.80
2018-12-10T10:55:02.272Z,56.60
2018-12-10T10:57:31.544Z,56.60
2018-12-10T11:00:00.698Z,56.00
2018-12-10T11:05:40.113Z,56.60
2018-12-10T11:08:09.173Z,56.40
2018-12-10T11:10:38.708Z,56.20
2018-12-10T11:13:07.918Z,57.00
2018-12-10T11:15:36.967Z,57.90
2018-12-10T11:18:07.996Z,57.50
2018-12-10T11:20:38.104Z,57.00
2018-12-10T11:23:07.542Z,57.40
2018-12-10T11:25:36.677Z,56.80
2018-12-10T11:28:06.498Z,57.00
2018-12-10T11:30:36.171Z,57.30
2018-12-10T11:33:06.072Z,56.60
2018-12-10T11:35:37.068Z,56.40
2018-12-10T11:38:06.692Z,57.20
2018-12-10T11:40:36.317Z,55.80
2018-12-10T11:43:05.742Z,56.60
2018-12-10T11:45:35.259Z,55.80
2018-12-10T11:48:04.811Z,56.00
2018-12-10T11:50:34.279Z,56.20
2018-12-10T11:53:04.227Z,56.30
2018-12-10T11:55:33.762Z,56.30
2018-12-10T11:58:03.616Z,55.70
2018-12-10T12:00:33.336Z,55.90
2018-12-10T12:03:02.791Z,56.40
2018-12-10T12:05:32.611Z,56.40
2018-12-10T12:08:02.667Z,56.10
2018-12-10T12:10:32.044Z,56.70
2018-12-10T12:13:01.408Z,56.30
2018-12-10T12:15:30.883Z,56.80
2018-12-10T12:18:01.163Z,56.40
2018-12-10T12:20:30.810Z,56.40
2018-12-10T12:23:00.736Z,56.10
2018-12-10T12:25:30.428Z,56.80
2018-12-10T12:27:59.483Z,56.90
2018-12-10T12:30:28.544Z,56.60
2018-12-10T12:32:58.085Z,55.70
2018-12-10T12:35:27.702Z,55.80
2018-12-10T12:37:57.295Z,55.80
2018-12-10T12:40:26.379Z,55.10
2018-12-10T12:42:55.798Z,55.10
2018-12-10T12:45:24.903Z,55.60
2018-12-10T12:47:55.620Z,55.50
2018-12-10T12:50:24.642Z,55.60
2018-12-10T12:52:55.405Z,55.20
2018-12-10T12:55:24.670Z,55.80
2018-12-10T12:57:53.895Z,55.70
2018-12-10T13:00:27.290Z,55.90
2018-12-10T13:02:56.309Z,57.20
2018-12-10T13:05:25.769Z,56.90
2018-12-10T13:07:54.803Z,56.70
2018-12-10T13:10:24.142Z,56.80
2018-12-10T13:12:53.450Z,59.20
2018-12-10T13:15:23.090Z,63.20
2018-12-10T13:17:53.151Z,65.00
2018-12-10T13:20:22.900Z,65.50
2018-12-10T13:22:52.547Z,65.80
2018-12-10T13:25:21.637Z,65.40
2018-12-10T13:27:51.186Z,64.10
2018-12-10T13:30:20.854Z,62.30
2018-12-10T13:32:50.992Z,60.90
2018-12-10T13:35:20.395Z,59.80
2018-12-10T13:37:49.790Z,58.50
2018-12-10T13:40:19.720Z,58.90
2018-12-10T13:42:48.796Z,57.60
2018-12-10T13:45:17.857Z,58.50
2018-12-10T13:47:46.982Z,58.40
2018-12-10T13:50:16.054Z,57.90
2018-12-10T13:52:45.812Z,58.30
2018-12-10T13:55:15.454Z,58.90
2018-12-10T13:57:44.483Z,59.00
2018-12-10T14:00:13.511Z,60.00
2018-12-10T14:02:42.600Z,59.50
2018-12-10T14:05:12.450Z,60.20
2018-12-10T14:07:41.952Z,60.30
2018-12-10T14:10:11.597Z,59.90
2018-12-10T14:12:40.938Z,60.30
2018-12-10T14:15:10.024Z,59.40
2018-12-10T14:17:39.050Z,59.10
2018-12-10T14:20:08.194Z,59.30
2018-12-10T14:22:38.336Z,58.60
2018-12-10T14:25:08.021Z,59.00
2018-12-10T14:27:38.663Z,58.50
2018-12-10T14:30:08.402Z,58.50
2018-12-10T14:32:38.158Z,58.60
2018-12-10T14:35:07.179Z,58.70
2018-12-10T14:37:36.354Z,58.30
2018-12-10T14:40:06.275Z,58.30
2018-12-10T14:42:52.898Z,58.40
2018-12-10T14:45:22.113Z,57.90
2018-12-10T14:47:51.557Z,58.00
2018-12-10T14:50:21.033Z,58.20
2018-12-10T14:52:50.607Z,58.70
2018-12-10T14:55:20.511Z,59.10
2018-12-10T14:57:49.534Z,60.00
2018-12-10T15:00:19.072Z,59.80
2018-12-10T15:02:48.123Z,59.10
2018-12-10T15:05:19.040Z,59.50
2018-12-10T15:07:48.200Z,59.50
2018-12-10T15:10:23.119Z,60.00
2018-12-10T15:12:49.351Z,60.90
2018-12-10T15:15:18.592Z,59.90
2018-12-10T15:17:48.505Z,61.20
2018-12-10T15:20:19.292Z,62.30
2018-12-10T15:22:48.352Z,62.50
2018-12-10T15:25:17.791Z,61.80
2018-12-10T15:27:47.186Z,62.00
2018-12-10T15:30:17.386Z,61.40
2018-12-10T15:32:47.068Z,61.40
2018-12-10T15:35:16.208Z,61.70
2018-12-10T15:37:46.355Z,61.50
2018-12-10T15:40:16.256Z,61.00
2018-12-10T15:42:45.595Z,61.10
2018-12-10T15:45:15.056Z,60.70
2018-12-10T15:47:44.945Z,60.50
2018-12-10T15:50:14.462Z,60.40
2018-12-10T15:52:44.526Z,60.00
2018-12-10T15:55:14.307Z,60.90
2018-12-10T15:57:44.700Z,60.20
2018-12-10T16:00:14.488Z,60.30
2018-12-10T16:02:44.523Z,61.30
2018-12-10T16:05:13.786Z,61.20
2018-12-10T16:07:42.835Z,60.90
2018-12-10T16:10:11.908Z,62.00
2018-12-10T16:12:41.952Z,62.20
2018-12-10T16:15:10.982Z,63.10
2018-12-10T16:17:40.015Z,63.50
2018-12-10T16:20:09.093Z,63.90
2018-12-10T16:22:38.149Z,63.70
2018-12-10T16:25:07.189Z,63.60
2018-12-10T16:27:37.091Z,63.50
2018-12-10T16:30:08.119Z,63.60
2018-12-10T16:32:37.147Z,63.60
2018-12-10T16:35:06.200Z,63.50
2018-12-10T16:37:36.043Z,64.20
2018-12-10T16:40:06.236Z,64.60
2018-12-10T16:42:36.143Z,64.70
2018-12-10T16:45:06.522Z,65.00
2018-12-10T16:47:36.506Z,64.50
2018-12-10T16:50:07.904Z,65.20
2018-12-10T16:52:36.930Z,64.50
2018-12-10T16:55:06.639Z,65.90
2018-12-10T16:57:36.303Z,65.70
2018-12-10T17:00:10.503Z,66.50
2018-12-10T17:02:40.846Z,66.70
2018-12-10T17:05:09.936Z,66.70
2018-12-10T17:07:39.276Z,66.80
2018-12-10T17:10:08.361Z,68.10
2018-12-10T17:12:38.443Z,68.50
2018-12-10T17:15:08.133Z,69.00
2018-12-10T17:17:37.340Z,70.40
2018-12-10T17:20:07.500Z,70.90
2018-12-10T17:22:37.064Z,71.40
2018-12-10T17:25:06.855Z,72.50
2018-12-10T17:27:36.494Z,73.10
2018-12-10T17:30:06.944Z,72.30
2018-12-10T17:32:36.522Z,71.40
2018-12-10T17:35:06.104Z,71.30
2018-12-10T17:37:36.153Z,71.40
2018-12-10T17:40:06.226Z,71.30
2018-12-10T17:42:35.246Z,71.30
2018-12-10T17:45:07.351Z,71.30
2018-12-10T17:47:37.056Z,72.20
2018-12-10T17:50:10.251Z,71.60
2018-12-10T17:52:39.551Z,70.80
2018-12-10T17:55:08.970Z,70.50
2018-12-10T17:57:38.829Z,71.30
2018-12-10T18:00:09.887Z,71.00
2018-12-10T18:02:39.646Z,72.40
2018-12-10T18:05:08.671Z,75.20
2018-12-10T18:07:37.696Z,76.60
2018-12-10T18:10:07.267Z,77.50
2018-12-10T18:12:36.675Z,76.90
2018-12-10T18:15:06.155Z,77.50
2018-12-10T18:17:35.211Z,78.30
2018-12-10T18:20:08.014Z,75.80
2018-12-10T18:22:37.528Z,76.00
2018-12-10T18:25:07.352Z,77.10
2018-12-10T18:27:36.386Z,75.80
2018-12-10T18:30:07.923Z,75.80
2018-12-10T18:32:37.178Z,75.90
2018-12-10T18:35:08.139Z,74.60
2018-12-10T18:37:37.788Z,74.30
2018-12-10T18:40:10.455Z,73.40
2018-12-10T18:42:40.300Z,73.20
2018-12-10T18:45:12.412Z,74.00
2018-12-10T18:47:41.430Z,75.80
2018-12-10T18:50:10.972Z,75.80
2018-12-10T18:52:40.388Z,75.80
2018-12-10T18:55:10.055Z,74.30
2018-12-10T18:57:39.690Z,74.50
2018-12-10T19:00:11.199Z,73.90
2018-12-10T19:02:41.598Z,74.30
2018-12-10T19:05:11.060Z,72.80
2018-12-10T19:07:40.507Z,73.80
2018-12-10T19:10:09.534Z,73.30
2018-12-10T19:12:39.107Z,73.60
2018-12-10T19:15:08.773Z,73.80
2018-12-10T19:17:38.291Z,73.10
2018-12-10T19:20:07.569Z,73.30
2018-12-10T19:22:37.688Z,73.60
2018-12-10T19:25:06.706Z,73.40
2018-12-10T19:27:36.344Z,74.40
2018-12-10T19:30:06.993Z,74.70
2018-12-10T19:32:36.333Z,74.20
2018-12-10T19:35:06.602Z,74.20
2018-12-10T19:37:37.132Z,74.50
2018-12-10T19:40:07.668Z,75.50
2018-12-10T19:42:36.722Z,75.90
2018-12-10T19:45:07.604Z,77.60
2018-12-10T19:47:36.619Z,78.00
2018-12-10T19:50:06.683Z,77.50
2018-12-10T19:52:35.809Z,76.30
2018-12-10T19:55:05.196Z,76.00
2018-12-10T19:57:35.737Z,76.90
2018-12-10T20:00:06.487Z,77.10
2018-12-10T20:02:35.548Z,76.20
2018-12-10T20:05:06.100Z,76.30
2018-12-10T20:07:35.731Z,75.90
2018-12-10T20:10:07.242Z,76.60
2018-12-10T20:12:36.968Z,75.90
2018-12-10T20:15:08.323Z,76.30
2018-12-10T20:17:37.676Z,77.30
2018-12-10T20:20:07.838Z,78.90
2018-12-10T20:22:37.736Z,79.50
2018-12-10T20:25:07.859Z,80.50
2018-12-10T20:27:37.224Z,80.20
2018-12-10T20:30:06.313Z,80.50
2018-12-10T20:32:35.476Z,81.80
2018-12-10T20:35:05.418Z,82.50
2018-12-10T20:37:35.127Z,82.30
2018-12-10T20:40:06.540Z,82.40
2018-12-10T20:42:35.579Z,83.00
2018-12-10T20:45:06.543Z,83.20
2018-12-10T20:47:35.589Z,83.40
2018-12-10T20:50:06.151Z,82.90
2018-12-10T20:52:36.715Z,82.60
2018-12-10T20:55:06.608Z,82.30
2018-12-10T20:57:41.376Z,82.30
2018-12-10T21:00:06.715Z,81.30
2018-12-10T21:02:35.850Z,81.40
2018-12-10T21:05:04.914Z,81.60
2018-12-10T21:07:34.011Z,81.10
2018-12-10T21:10:03.775Z,80.60
2018-12-10T21:12:32.830Z,80.70
2018-12-10T21:15:02.463Z,79.60
2018-12-10T21:17:31.478Z,79.00
2018-12-10T21:20:00.506Z,79.40
2018-12-10T21:22:29.560Z,80.00
2018-12-10T21:24:59.251Z,80.20
2018-12-10T21:27:28.746Z,80.00
2018-12-10T21:29:58.206Z,80.70
2018-12-10T21:32:27.240Z,80.90
2018-12-10T21:34:56.326Z,80.40
2018-12-10T21:37:25.512Z,80.00
2018-12-10T21:39:54.739Z,80.10
2018-12-10T21:42:24.188Z,80.10
2018-12-10T21:44:53.628Z,79.50
2018-12-10T21:47:23.359Z,79.00
2018-12-10T21:49:53.286Z,80.00
2018-12-10T21:52:23.067Z,79.60
2018-12-10T21:54:52.125Z,79.90
2018-12-10T21:57:21.583Z,79.80
2018-12-10T21:59:51.305Z,79.70
2018-12-10T22:02:21.105Z,79.90
2018-12-10T22:04:51.173Z,79.40
2018-12-10T22:07:20.519Z,80.00
2018-12-10T22:09:50.291Z,79.60
2018-12-10T22:12:19.683Z,80.00
2018-12-10T22:14:49.379Z,80.00
2018-12-10T22:17:19.426Z,79.70
2018-12-10T22:19:48.446Z,80.60
2018-12-10T22:22:17.473Z,80.60
2018-12-10T22:24:46.910Z,81.20
2018-12-10T22:27:15.967Z,80.60
2018-12-10T22:29:46.463Z,81.30
2018-12-10T22:32:15.882Z,80.90
2018-12-10T22:34:45.641Z,81.70
2018-12-10T22:37:15.383Z,82.20
2018-12-10T22:39:44.398Z,82.00
2018-12-10T22:42:14.446Z,81.90
2018-12-10T22:44:44.154Z,81.90
2018-12-10T22:47:13.928Z,81.70
2018-12-10T22:49:43.775Z,81.50
2018-12-10T22:52:13.183Z,80.90
2018-12-10T22:54:42.244Z,81.20
2018-12-10T22:57:13.295Z,81.30
2018-12-10T22:59:43.177Z,80.60
2018-12-10T23:02:12.511Z,80.50
2018-12-10T23:04:42.119Z,80.40
2018-12-10T23:07:11.170Z,79.60
2018-12-10T23:09:40.360Z,79.10
2018-12-10T23:12:09.375Z,79.80
2018-12-10T23:14:38.395Z,79.70
2018-12-10T23:17:07.488Z,79.40
2018-12-10T23:19:37.120Z,78.60
2018-12-10T23:22:06.915Z,78.40
2018-12-10T23:24:36.553Z,78.60
2018-12-10T23:27:05.566Z,77.90
2018-12-10T23:29:34.898Z,77.70
2018-12-10T23:32:03.947Z,77.80
2018-12-10T23:34:33.619Z,78.20
2018-12-10T23:37:02.685Z,77.50
2018-12-10T23:39:31.954Z,77.90
2018-12-10T23:42:01.437Z,78.10
2018-12-10T23:44:36.750Z,77.60
2018-12-10T23:47:06.147Z,77.20
2018-12-10T23:49:35.491Z,77.10
2018-12-10T23:52:04.518Z,77.10
2018-12-10T23:54:33.549Z,77.00
2018-12-10T23:57:03.366Z,77.10
2018-12-10T23:59:32.787Z,76.20
